sensor_id;sensor_type;location;lat;lon;timestamp;pressure;altitude;pressure_sealevel;temperature;humidity
43707;BME280;61348;53.392;-6.248;2022-09-12T00:01:53;100234.31;;;17.13;99.81
43707;BME280;61348;53.392;-6.248;2022-09-12T00:04:20;100243.91;;;17.12;99.68
43707;BME280;61348;53.392;-6.248;2022-09-12T00:06:47;100231.53;;;17.10;99.58
43707;BME280;61348;53.392;-6.248;2022-09-12T00:09:13;100236.31;;;17.09;99.60
43707;BME280;61348;53.392;-6.248;2022-09-12T00:11:43;100242.34;;;17.08;99.79
43707;BME280;61348;53.392;-6.248;2022-09-12T00:14:14;100243.91;;;17.09;99.62
43707;BME280;61348;53.392;-6.248;2022-09-12T00:16:41;100240.31;;;17.08;99.61
43707;BME280;61348;53.392;-6.248;2022-09-12T00:19:09;100235.13;;;17.10;99.85
43707;BME280;61348;53.392;-6.248;2022-09-12T00:21:38;100235.53;;;17.12;99.75
43707;BME280;61348;53.392;-6.248;2022-09-12T00:24:05;100232.31;;;17.14;99.53
43707;BME280;61348;53.392;-6.248;2022-09-12T00:26:32;100234.72;;;17.15;99.65
43707;BME280;61348;53.392;-6.248;2022-09-12T00:29:02;100236.31;;;17.16;99.66
43707;BME280;61348;53.392;-6.248;2022-09-12T00:31:29;100240.72;;;17.17;99.63
43707;BME280;61348;53.392;-6.248;2022-09-12T00:33:58;100248.69;;;17.19;99.84
43707;BME280;61348;53.392;-6.248;2022-09-12T00:36:27;100246.69;;;17.19;99.60
43707;BME280;61348;53.392;-6.248;2022-09-12T00:38:54;100245.50;;;17.20;99.57
43707;BME280;61348;53.392;-6.248;2022-09-12T00:41:27;100243.91;;;17.19;99.62
43707;BME280;61348;53.392;-6.248;2022-09-12T00:44:02;100244.69;;;17.20;99.89
43707;BME280;61348;53.392;-6.248;2022-09-12T00:51:51;100245.50;;;17.20;100.00
43707;BME280;61348;53.392;-6.248;2022-09-12T00:54:21;100241.50;;;17.21;99.95
43707;BME280;61348;53.392;-6.248;2022-09-12T00:56:53;100247.09;;;17.21;100.00
43707;BME280;61348;53.392;-6.248;2022-09-12T00:59:28;100243.91;;;17.19;100.00
43707;BME280;61348;53.392;-6.248;2022-09-12T01:01:56;100232.31;;;17.17;100.00
43707;BME280;61348;53.392;-6.248;2022-09-12T01:04:25;100238.28;;;17.16;100.00
43707;BME280;61348;53.392;-6.248;2022-09-12T01:06:55;100233.13;;;17.14;100.00
43707;BME280;61348;53.392;-6.248;2022-09-12T01:09:23;100236.72;;;17.11;100.00
43707;BME280;61348;53.392;-6.248;2022-09-12T01:11:52;100238.31;;;17.09;100.00
43707;BME280;61348;53.392;-6.248;2022-09-12T01:14:19;100242.72;;;17.06;100.00
43707;BME280;61348;53.392;-6.248;2022-09-12T01:16:47;100235.94;;;17.03;100.00
43707;BME280;61348;53.392;-6.248;2022-09-12T01:25:27;100222.34;;;17.02;100.00
43707;BME280;61348;53.392;-6.248;2022-09-12T01:33:43;100216.75;;;16.98;100.00
43707;BME280;61348;53.392;-6.248;2022-09-12T01:36:35;100217.56;;;16.95;100.00
43707;BME280;61348;53.392;-6.248;2022-09-12T01:42:22;100219.94;;;16.90;100.00
43707;BME280;61348;53.392;-6.248;2022-09-12T01:45:20;100212.78;;;16.89;100.00
43707;BME280;61348;53.392;-6.248;2022-09-12T01:50:27;100212.38;;;16.87;100.00
43707;BME280;61348;53.392;-6.248;2022-09-12T01:53:06;100220.75;;;16.87;100.00
43707;BME280;61348;53.392;-6.248;2022-09-12T01:56:17;100217.56;;;16.85;100.00
43707;BME280;61348;53.392;-6.248;2022-09-12T01:59:02;100211.16;;;16.84;100.00
43707;BME280;61348;53.392;-6.248;2022-09-12T02:01:32;100217.97;;;16.83;100.00
43707;BME280;61348;53.392;-6.248;2022-09-12T02:04:12;100210.38;;;16.84;100.00
43707;BME280;61348;53.392;-6.248;2022-09-12T02:07:05;100215.94;;;16.84;100.00
43707;BME280;61348;53.392;-6.248;2022-09-12T02:10:40;100215.94;;;16.84;100.00
43707;BME280;61348;53.392;-6.248;2022-09-12T02:13:00;100209.59;;;16.83;100.00
43707;BME280;61348;53.392;-6.248;2022-09-12T02:15:39;100214.38;;;16.83;100.00
43707;BME280;61348;53.392;-6.248;2022-09-12T02:18:12;100221.53;;;16.84;100.00
43707;BME280;61348;53.392;-6.248;2022-09-12T02:20:40;100213.97;;;16.84;100.00
43707;BME280;61348;53.392;-6.248;2022-09-12T02:23:22;100211.59;;;16.86;100.00
43707;BME280;61348;53.392;-6.248;2022-09-12T02:25:56;100206.78;;;16.87;100.00
43707;BME280;61348;53.392;-6.248;2022-09-12T02:28:35;100214.34;;;16.90;100.00
43707;BME280;61348;53.392;-6.248;2022-09-12T02:33:44;100218.34;;;16.92;100.00
43707;BME280;61348;53.392;-6.248;2022-09-12T02:36:20;100205.97;;;16.93;100.00
43707;BME280;61348;53.392;-6.248;2022-09-12T02:38:52;100217.97;;;16.94;100.00
43707;BME280;61348;53.392;-6.248;2022-09-12T02:41:20;100223.94;;;16.96;100.00
43707;BME280;61348;53.392;-6.248;2022-09-12T02:43:48;100219.97;;;16.97;100.00
43707;BME280;61348;53.392;-6.248;2022-09-12T02:46:21;100219.97;;;16.97;100.00
43707;BME280;61348;53.392;-6.248;2022-09-12T02:48:48;100221.97;;;16.96;100.00
43707;BME280;61348;53.392;-6.248;2022-09-12T02:51:15;100214.75;;;16.95;100.00
43707;BME280;61348;53.392;-6.248;2022-09-12T02:53:49;100222.34;;;16.95;100.00
43707;BME280;61348;53.392;-6.248;2022-09-12T02:56:20;100213.56;;;16.93;100.00
43707;BME280;61348;53.392;-6.248;2022-09-12T02:58:49;100207.97;;;16.89;100.00
43707;BME280;61348;53.392;-6.248;2022-09-12T03:01:40;100221.56;;;16.87;100.00
43707;BME280;61348;53.392;-6.248;2022-09-12T03:04:24;100210.38;;;16.84;100.00
43707;BME280;61348;53.392;-6.248;2022-09-12T03:12:35;100199.19;;;16.84;100.00
43707;BME280;61348;53.392;-6.248;2022-09-12T03:23:42;100212.78;;;16.82;100.00
43707;BME280;61348;53.392;-6.248;2022-09-12T03:26:16;100213.56;;;16.79;100.00
43707;BME280;61348;53.392;-6.248;2022-09-12T03:28:47;100216.78;;;16.77;100.00
43707;BME280;61348;53.392;-6.248;2022-09-12T03:31:17;100208.78;;;16.76;100.00
43707;BME280;61348;53.392;-6.248;2022-09-12T03:33:44;100208.78;;;16.76;100.00
43707;BME280;61348;53.392;-6.248;2022-09-12T03:36:21;100208.78;;;16.76;100.00
43707;BME280;61348;53.392;-6.248;2022-09-12T03:38:51;100220.78;;;16.73;100.00
43707;BME280;61348;53.392;-6.248;2022-09-12T03:41:18;100215.97;;;16.73;100.00
43707;BME280;61348;53.392;-6.248;2022-09-12T03:43:45;100232.34;;;16.75;100.00
43707;BME280;61348;53.392;-6.248;2022-09-12T03:46:12;100227.97;;;16.77;100.00
43707;BME280;61348;53.392;-6.248;2022-09-12T03:48:39;100228.75;;;16.78;100.00
43707;BME280;61348;53.392;-6.248;2022-09-12T03:51:08;100232.34;;;16.78;100.00
43707;BME280;61348;53.392;-6.248;2022-09-12T03:53:35;100233.13;;;16.79;100.00
43707;BME280;61348;53.392;-6.248;2022-09-12T03:56:07;100237.53;;;16.80;100.00
43707;BME280;61348;53.392;-6.248;2022-09-12T03:58:34;100234.75;;;16.80;100.00
43707;BME280;61348;53.392;-6.248;2022-09-12T04:01:15;100234.31;;;16.81;100.00
43707;BME280;61348;53.392;-6.248;2022-09-12T04:03:44;100237.13;;;16.81;100.00
43707;BME280;61348;53.392;-6.248;2022-09-12T04:06:13;100240.72;;;16.82;100.00
43707;BME280;61348;53.392;-6.248;2022-09-12T04:08:42;100235.13;;;16.82;100.00
43707;BME280;61348;53.392;-6.248;2022-09-12T04:11:11;100229.53;;;16.82;100.00
43707;BME280;61348;53.392;-6.248;2022-09-12T04:13:40;100241.53;;;16.82;100.00
43707;BME280;61348;53.392;-6.248;2022-09-12T04:16:07;100240.72;;;16.82;100.00
43707;BME280;61348;53.392;-6.248;2022-09-12T04:18:34;100247.13;;;16.79;100.00
43707;BME280;61348;53.392;-6.248;2022-09-12T04:21:10;100244.31;;;16.72;100.00
43707;BME280;61348;53.392;-6.248;2022-09-12T04:23:37;100237.53;;;16.66;100.00
43707;BME280;61348;53.392;-6.248;2022-09-12T04:26:04;100240.72;;;16.61;100.00
43707;BME280;61348;53.392;-6.248;2022-09-12T04:28:35;100235.53;;;16.56;100.00
43707;BME280;61348;53.392;-6.248;2022-09-12T04:31:22;100233.53;;;16.53;100.00
43707;BME280;61348;53.392;-6.248;2022-09-12T04:33:57;100239.88;;;16.50;100.00
43707;BME280;61348;53.392;-6.248;2022-09-12T04:36:26;100251.06;;;16.46;100.00
43707;BME280;61348;53.392;-6.248;2022-09-12T04:38:53;100239.88;;;16.42;100.00
43707;BME280;61348;53.392;-6.248;2022-09-12T04:41:22;100250.25;;;16.38;100.00
43707;BME280;61348;53.392;-6.248;2022-09-12T04:43:54;100243.84;;;16.34;100.00
43707;BME280;61348;53.392;-6.248;2022-09-12T04:46:21;100241.84;;;16.28;100.00
43707;BME280;61348;53.392;-6.248;2022-09-12T04:48:47;100235.06;;;16.25;100.00
43707;BME280;61348;53.392;-6.248;2022-09-12T04:51:39;100235.84;;;16.22;100.00
43707;BME280;61348;53.392;-6.248;2022-09-12T04:54:17;100240.63;;;16.22;100.00
43707;BME280;61348;53.392;-6.248;2022-09-12T04:56:46;100238.22;;;16.20;100.00
43707;BME280;61348;53.392;-6.248;2022-09-12T04:59:15;100240.22;;;16.16;100.00
43707;BME280;61348;53.392;-6.248;2022-09-12T05:01:42;100238.22;;;16.13;100.00
43707;BME280;61348;53.392;-6.248;2022-09-12T05:04:10;100244.56;;;16.10;100.00
43707;BME280;61348;53.392;-6.248;2022-09-12T05:06:39;100243.78;;;16.10;100.00
43707;BME280;61348;53.392;-6.248;2022-09-12T05:09:07;100239.78;;;16.07;100.00
43707;BME280;61348;53.392;-6.248;2022-09-12T05:11:38;100238.97;;;16.03;100.00
43707;BME280;61348;53.392;-6.248;2022-09-12T05:14:26;100249.75;;;16.01;100.00
43707;BME280;61348;53.392;-6.248;2022-09-12T05:16:53;100252.53;;;16.01;100.00
43707;BME280;61348;53.392;-6.248;2022-09-12T05:19:21;100256.53;;;16.00;100.00
43707;BME280;61348;53.392;-6.248;2022-09-12T05:21:48;100250.53;;;15.98;100.00
43707;BME280;61348;53.392;-6.248;2022-09-12T05:24:15;100254.50;;;15.97;100.00
43707;BME280;61348;53.392;-6.248;2022-09-12T05:26:43;100250.91;;;15.93;100.00
43707;BME280;61348;53.392;-6.248;2022-09-12T05:29:10;100255.66;;;15.89;100.00
43707;BME280;61348;53.392;-6.248;2022-09-12T05:31:36;100254.09;;;15.88;100.00
43707;BME280;61348;53.392;-6.248;2022-09-12T05:34:04;100262.03;;;15.86;100.00
43707;BME280;61348;53.392;-6.248;2022-09-12T05:36:32;100263.66;;;15.87;100.00
43707;BME280;61348;53.392;-6.248;2022-09-12T05:38:59;100258.88;;;15.88;100.00
43707;BME280;61348;53.392;-6.248;2022-09-12T05:41:28;100269.63;;;15.89;100.00
43707;BME280;61348;53.392;-6.248;2022-09-12T05:44:01;100269.25;;;15.91;100.00
43707;BME280;61348;53.392;-6.248;2022-09-12T05:46:30;100272.03;;;15.91;100.00
43707;BME280;61348;53.392;-6.248;2022-09-12T05:49:06;100263.69;;;15.91;100.00
43707;BME280;61348;53.392;-6.248;2022-09-12T05:51:36;100261.69;;;15.91;100.00
43707;BME280;61348;53.392;-6.248;2022-09-12T05:54:05;100275.63;;;15.95;100.00
43707;BME280;61348;53.392;-6.248;2022-09-12T05:56:36;100275.25;;;16.00;100.00
43707;BME280;61348;53.392;-6.248;2022-09-12T05:59:16;100284.06;;;16.02;100.00
43707;BME280;61348;53.392;-6.248;2022-09-12T06:01:44;100278.88;;;16.04;100.00
43707;BME280;61348;53.392;-6.248;2022-09-12T06:04:11;100287.66;;;16.06;100.00
43707;BME280;61348;53.392;-6.248;2022-09-12T06:06:42;100270.09;;;16.05;100.00
43707;BME280;61348;53.392;-6.248;2022-09-12T06:09:12;100278.88;;;16.07;100.00
43707;BME280;61348;53.392;-6.248;2022-09-12T06:11:39;100284.09;;;16.09;100.00
43707;BME280;61348;53.392;-6.248;2022-09-12T06:14:08;100284.47;;;16.07;100.00
43707;BME280;61348;53.392;-6.248;2022-09-12T06:16:36;100283.28;;;16.08;100.00
43707;BME280;61348;53.392;-6.248;2022-09-12T06:19:15;100284.88;;;16.09;100.00
43707;BME280;61348;53.392;-6.248;2022-09-12T06:21:43;100286.09;;;16.12;100.00
43707;BME280;61348;53.392;-6.248;2022-09-12T06:24:10;100292.47;;;16.12;100.00
43707;BME280;61348;53.392;-6.248;2022-09-12T06:26:37;100294.06;;;16.13;100.00
43707;BME280;61348;53.392;-6.248;2022-09-12T06:29:04;100302.06;;;16.15;100.00
43707;BME280;61348;53.392;-6.248;2022-09-12T06:31:33;100295.69;;;16.14;100.00
43707;BME280;61348;53.392;-6.248;2022-09-12T06:34:08;100300.03;;;16.15;100.00
43707;BME280;61348;53.392;-6.248;2022-09-12T06:36:38;100301.66;;;16.16;100.00
43707;BME280;61348;53.392;-6.248;2022-09-12T06:39:10;100297.25;;;16.15;100.00
43707;BME280;61348;53.392;-6.248;2022-09-12T06:41:38;100298.06;;;16.16;100.00
43707;BME280;61348;53.392;-6.248;2022-09-12T06:44:27;100299.25;;;16.18;100.00
43707;BME280;61348;53.392;-6.248;2022-09-12T06:46:55;100306.47;;;16.19;100.00
43707;BME280;61348;53.392;-6.248;2022-09-12T06:49:21;100310.84;;;16.20;100.00
43707;BME280;61348;53.392;-6.248;2022-09-12T06:51:48;100307.69;;;16.25;100.00
43707;BME280;61348;53.392;-6.248;2022-09-12T06:54:15;100304.50;;;16.27;100.00
43707;BME280;61348;53.392;-6.248;2022-09-12T06:56:45;100304.09;;;16.28;100.00
43707;BME280;61348;53.392;-6.248;2022-09-12T06:59:12;100312.47;;;16.28;100.00
43707;BME280;61348;53.392;-6.248;2022-09-12T07:01:39;100306.88;;;16.28;100.00
43707;BME280;61348;53.392;-6.248;2022-09-12T07:04:07;100309.28;;;16.30;100.00
43707;BME280;61348;53.392;-6.248;2022-09-12T07:06:40;100315.69;;;16.30;100.00
43707;BME280;61348;53.392;-6.248;2022-09-12T07:09:11;100317.25;;;16.31;100.00
43707;BME280;61348;53.392;-6.248;2022-09-12T07:11:39;100322.03;;;16.31;100.00
43707;BME280;61348;53.392;-6.248;2022-09-12T07:14:08;100328.44;;;16.31;100.00
43707;BME280;61348;53.392;-6.248;2022-09-12T07:16:37;100334.03;;;16.31;100.00
43707;BME280;61348;53.392;-6.248;2022-09-12T07:19:05;100335.63;;;16.32;100.00
43707;BME280;61348;53.392;-6.248;2022-09-12T07:21:33;100334.84;;;16.35;100.00
43707;BME280;61348;53.392;-6.248;2022-09-12T07:24:07;100333.25;;;16.34;100.00
43707;BME280;61348;53.392;-6.248;2022-09-12T07:26:34;100330.84;;;16.36;100.00
43707;BME280;61348;53.392;-6.248;2022-09-12T07:29:02;100325.25;;;16.36;100.00
43707;BME280;61348;53.392;-6.248;2022-09-12T07:31:48;100325.25;;;16.36;100.00
43707;BME280;61348;53.392;-6.248;2022-09-12T07:34:18;100336.84;;;16.35;100.00
43707;BME280;61348;53.392;-6.248;2022-09-12T07:36:44;100328.44;;;16.31;100.00
43707;BME280;61348;53.392;-6.248;2022-09-12T07:39:11;100335.22;;;16.34;100.00
43707;BME280;61348;53.392;-6.248;2022-09-12T07:41:38;100341.25;;;16.39;100.00
43707;BME280;61348;53.392;-6.248;2022-09-12T07:44:05;100326.91;;;16.41;100.00
43707;BME280;61348;53.392;-6.248;2022-09-12T07:46:32;100334.09;;;16.45;100.00
43707;BME280;61348;53.392;-6.248;2022-09-12T07:49:00;100331.72;;;16.51;100.00
43707;BME280;61348;53.392;-6.248;2022-09-12T07:51:28;100340.13;;;16.58;100.00
43707;BME280;61348;53.392;-6.248;2022-09-12T07:53:56;100342.16;;;16.65;100.00
43707;BME280;61348;53.392;-6.248;2022-09-12T07:56:24;100343.75;;;16.69;100.00
43707;BME280;61348;53.392;-6.248;2022-09-12T07:58:56;100344.97;;;16.72;100.00
43707;BME280;61348;53.392;-6.248;2022-09-12T08:01:23;100343.38;;;16.74;100.00
43707;BME280;61348;53.392;-6.248;2022-09-12T08:03:58;100349.38;;;16.80;100.00
43707;BME280;61348;53.392;-6.248;2022-09-12T08:06:28;100346.19;;;16.85;100.00
43707;BME280;61348;53.392;-6.248;2022-09-12T08:08:58;100348.56;;;16.90;100.00
43707;BME280;61348;53.392;-6.248;2022-09-12T08:11:26;100348.63;;;16.97;100.00
43707;BME280;61348;53.392;-6.248;2022-09-12T08:13:58;100338.59;;;17.03;100.00
43707;BME280;61348;53.392;-6.248;2022-09-12T08:16:29;100335.84;;;17.10;100.00
43707;BME280;61348;53.392;-6.248;2022-09-12T08:18:58;100351.00;;;17.16;100.00
43707;BME280;61348;53.392;-6.248;2022-09-12T08:21:27;100348.22;;;17.23;100.00
43707;BME280;61348;53.392;-6.248;2022-09-12T08:23:57;100353.81;;;17.23;100.00
43707;BME280;61348;53.392;-6.248;2022-09-12T08:26:24;100353.81;;;17.30;100.00
43707;BME280;61348;53.392;-6.248;2022-09-12T08:28:52;100351.78;;;17.34;100.00
43707;BME280;61348;53.392;-6.248;2022-09-12T08:31:23;100357.00;;;17.36;100.00
43707;BME280;61348;53.392;-6.248;2022-09-12T08:33:50;100357.41;;;17.41;100.00
43707;BME280;61348;53.392;-6.248;2022-09-12T08:36:22;100353.78;;;17.51;100.00
43707;BME280;61348;53.392;-6.248;2022-09-12T08:38:57;100350.19;;;17.58;100.00
43707;BME280;61348;53.392;-6.248;2022-09-12T08:52:19;100359.81;;;17.53;100.00
43707;BME280;61348;53.392;-6.248;2022-09-12T08:54:47;100374.19;;;17.48;99.61
43707;BME280;61348;53.392;-6.248;2022-09-12T08:57:15;100373.38;;;17.51;99.96
43707;BME280;61348;53.392;-6.248;2022-09-12T08:59:44;100373.00;;;17.56;99.43
43707;BME280;61348;53.392;-6.248;2022-09-12T09:05:16;100371.78;;;17.50;99.41
43707;BME280;61348;53.392;-6.248;2022-09-12T09:10:29;100382.19;;;17.50;98.91
43707;BME280;61348;53.392;-6.248;2022-09-12T09:13:14;100380.59;;;17.52;98.66
43707;BME280;61348;53.392;-6.248;2022-09-12T09:18:44;100391.00;;;17.62;98.48
43707;BME280;61348;53.392;-6.248;2022-09-12T09:21:30;100382.19;;;17.68;98.30
43707;BME280;61348;53.392;-6.248;2022-09-12T09:24:05;100388.59;;;17.72;98.04
43707;BME280;61348;53.392;-6.248;2022-09-12T09:26:40;100378.16;;;17.79;97.62
43707;BME280;61348;53.392;-6.248;2022-09-12T09:29:19;100393.38;;;17.89;97.30
43707;BME280;61348;53.392;-6.248;2022-09-12T09:31:48;100386.94;;;17.99;97.17
43707;BME280;61348;53.392;-6.248;2022-09-12T09:34:22;100383.34;;;18.02;96.91
43707;BME280;61348;53.392;-6.248;2022-09-12T09:36:50;100386.94;;;17.99;96.67
43707;BME280;61348;53.392;-6.248;2022-09-12T09:39:51;100386.94;;;18.02;97.18
43707;BME280;61348;53.392;-6.248;2022-09-12T09:42:43;100399.72;;;18.03;97.16
43707;BME280;61348;53.392;-6.248;2022-09-12T09:45:14;100406.13;;;18.04;96.87
43707;BME280;61348;53.392;-6.248;2022-09-12T09:47:48;100393.72;;;18.15;96.97
43707;BME280;61348;53.392;-6.248;2022-09-12T09:50:17;100395.63;;;18.36;96.65
43707;BME280;61348;53.392;-6.248;2022-09-12T09:52:46;100404.78;;;18.54;95.54
43707;BME280;61348;53.392;-6.248;2022-09-12T09:55:19;100399.13;;;18.65;95.39
43707;BME280;61348;53.392;-6.248;2022-09-12T09:57:48;100404.31;;;18.73;95.46
43707;BME280;61348;53.392;-6.248;2022-09-12T10:00:25;100396.28;;;18.79;94.79
43707;BME280;61348;53.392;-6.248;2022-09-12T10:03:32;100405.88;;;18.81;94.83
43707;BME280;61348;53.392;-6.248;2022-09-12T10:06:01;100407.50;;;18.75;94.88
43707;BME280;61348;53.392;-6.248;2022-09-12T10:08:34;100410.72;;;18.74;94.97
43707;BME280;61348;53.392;-6.248;2022-09-12T10:16:20;100401.56;;;18.66;94.59
43707;BME280;61348;53.392;-6.248;2022-09-12T10:18:49;100399.97;;;18.58;93.74
43707;BME280;61348;53.392;-6.248;2022-09-12T10:21:26;100406.81;;;18.47;93.95
43707;BME280;61348;53.392;-6.248;2022-09-12T10:26:40;100413.69;;;18.32;94.17
43707;BME280;61348;53.392;-6.248;2022-09-12T10:29:14;100423.28;;;18.34;94.15
43707;BME280;61348;53.392;-6.248;2022-09-12T10:31:49;100428.88;;;18.34;94.03
43707;BME280;61348;53.392;-6.248;2022-09-12T10:40:01;100418.91;;;18.19;93.94
43707;BME280;61348;53.392;-6.248;2022-09-12T10:45:31;100441.72;;;18.21;93.82
43707;BME280;61348;53.392;-6.248;2022-09-12T10:48:18;100436.50;;;18.23;93.70
43707;BME280;61348;53.392;-6.248;2022-09-12T10:50:48;100434.91;;;18.22;93.80
43707;BME280;61348;53.392;-6.248;2022-09-12T10:53:26;100441.31;;;18.26;93.59
43707;BME280;61348;53.392;-6.248;2022-09-12T11:07:46;100444.47;;;18.42;93.54
43707;BME280;61348;53.392;-6.248;2022-09-12T11:15:58;100445.25;;;18.46;93.68
43707;BME280;61348;53.392;-6.248;2022-09-12T11:18:45;100436.03;;;18.46;93.83
43707;BME280;61348;53.392;-6.248;2022-09-12T11:35:25;100458.97;;;18.16;94.30
43707;BME280;61348;53.392;-6.248;2022-09-12T11:41:06;100459.75;;;18.06;94.41
43707;BME280;61348;53.392;-6.248;2022-09-12T11:43:43;100460.97;;;18.05;94.47
43707;BME280;61348;53.392;-6.248;2022-09-12T11:48:57;100454.19;;;17.92;94.81
43707;BME280;61348;53.392;-6.248;2022-09-12T11:51:28;100462.59;;;17.81;94.90
43707;BME280;61348;53.392;-6.248;2022-09-12T11:54:07;100461.78;;;17.77;95.35
43707;BME280;61348;53.392;-6.248;2022-09-12T11:56:42;100466.59;;;17.70;95.12
43707;BME280;61348;53.392;-6.248;2022-09-12T12:02:00;100457.34;;;17.51;95.49
43707;BME280;61348;53.392;-6.248;2022-09-12T12:04:38;100451.75;;;17.48;95.91
43707;BME280;61348;53.392;-6.248;2022-09-12T12:07:10;100453.75;;;17.51;96.33
43707;BME280;61348;53.392;-6.248;2022-09-12T12:09:48;100467.38;;;17.52;96.31
43707;BME280;61348;53.392;-6.248;2022-09-12T12:12:21;100459.78;;;17.53;96.16
43707;BME280;61348;53.392;-6.248;2022-09-12T12:14:52;100465.00;;;17.54;96.22
43707;BME280;61348;53.392;-6.248;2022-09-12T12:17:22;100462.97;;;17.58;96.55
43707;BME280;61348;53.392;-6.248;2022-09-12T12:20:02;100463.41;;;17.60;96.58
43707;BME280;61348;53.392;-6.248;2022-09-12T12:22:34;100458.97;;;17.52;96.20
43707;BME280;61348;53.392;-6.248;2022-09-12T12:35:39;100468.16;;;17.46;97.50
43707;BME280;61348;53.392;-6.248;2022-09-12T12:38:36;100466.94;;;17.50;97.32
43707;BME280;61348;53.392;-6.248;2022-09-12T12:43:48;100478.19;;;17.54;97.73
43707;BME280;61348;53.392;-6.248;2022-09-12T12:46:25;100479.00;;;17.54;97.70
43707;BME280;61348;53.392;-6.248;2022-09-12T12:49:17;100478.19;;;17.54;97.64
43707;BME280;61348;53.392;-6.248;2022-09-12T12:51:58;100482.97;;;17.53;97.73
43707;BME280;61348;53.392;-6.248;2022-09-12T12:54:27;100486.16;;;17.55;97.71
43707;BME280;61348;53.392;-6.248;2022-09-12T12:57:28;100497.38;;;17.59;97.86
43707;BME280;61348;53.392;-6.248;2022-09-12T13:00:06;100487.00;;;17.59;97.67
43707;BME280;61348;53.392;-6.248;2022-09-12T13:02:38;100491.41;;;17.60;97.77
43707;BME280;61348;53.392;-6.248;2022-09-12T13:05:17;100488.59;;;17.64;97.86
43707;BME280;61348;53.392;-6.248;2022-09-12T13:07:45;100499.78;;;17.68;97.50
43707;BME280;61348;53.392;-6.248;2022-09-12T13:10:22;100495.00;;;17.68;97.81
43707;BME280;61348;53.392;-6.248;2022-09-12T13:12:50;100497.38;;;17.66;97.85
43707;BME280;61348;53.392;-6.248;2022-09-12T13:18:06;100495.78;;;17.69;97.63
43707;BME280;61348;53.392;-6.248;2022-09-12T13:21:15;100498.19;;;17.67;97.70
43707;BME280;61348;53.392;-6.248;2022-09-12T13:23:44;100506.59;;;17.70;97.92
43707;BME280;61348;53.392;-6.248;2022-09-12T13:26:41;100504.59;;;17.71;97.77
43707;BME280;61348;53.392;-6.248;2022-09-12T13:29:18;100503.00;;;17.73;98.10
43707;BME280;61348;53.392;-6.248;2022-09-12T13:31:49;100506.19;;;17.75;98.11
43707;BME280;61348;53.392;-6.248;2022-09-12T13:34:21;100504.59;;;17.78;97.90
43707;BME280;61348;53.392;-6.248;2022-09-12T13:37:20;100498.22;;;17.84;97.84
43707;BME280;61348;53.392;-6.248;2022-09-12T13:42:47;100505.00;;;17.87;97.82
43707;BME280;61348;53.392;-6.248;2022-09-12T13:45:24;100505.81;;;17.84;97.30
43707;BME280;61348;53.392;-6.248;2022-09-12T13:48:01;100508.59;;;17.77;97.60
43707;BME280;61348;53.392;-6.248;2022-09-12T13:50:37;100505.81;;;17.73;97.43
43707;BME280;61348;53.392;-6.248;2022-09-12T13:53:16;100512.56;;;17.69;97.43
43707;BME280;61348;53.392;-6.248;2022-09-12T13:55:47;100512.56;;;17.69;97.18
43707;BME280;61348;53.392;-6.248;2022-09-12T13:58:20;100506.97;;;17.69;97.23
43707;BME280;61348;53.392;-6.248;2022-09-12T14:01:20;100511.00;;;17.68;97.15
43707;BME280;61348;53.392;-6.248;2022-09-12T14:03:51;100518.19;;;17.65;97.24
43707;BME280;61348;53.392;-6.248;2022-09-12T14:06:45;100519.78;;;17.62;96.99
43707;BME280;61348;53.392;-6.248;2022-09-12T14:09:29;100518.19;;;17.61;97.12
43707;BME280;61348;53.392;-6.248;2022-09-12T14:11:57;100520.59;;;17.59;97.15
43707;BME280;61348;53.392;-6.248;2022-09-12T14:14:33;100518.19;;;17.61;97.08
43707;BME280;61348;53.392;-6.248;2022-09-12T14:17:26;100504.59;;;17.67;97.10
43707;BME280;61348;53.392;-6.248;2022-09-12T14:20:01;100506.19;;;17.72;97.13
43707;BME280;61348;53.392;-6.248;2022-09-12T14:22:30;100503.78;;;17.77;96.94
43707;BME280;61348;53.392;-6.248;2022-09-12T14:24:58;100516.63;;;17.82;96.87
43707;BME280;61348;53.392;-6.248;2022-09-12T14:27:43;100517.41;;;17.86;96.92
43707;BME280;61348;53.392;-6.248;2022-09-12T14:30:29;100522.22;;;17.82;96.76
43707;BME280;61348;53.392;-6.248;2022-09-12T14:35:31;100520.59;;;17.74;97.27
43707;BME280;61348;53.392;-6.248;2022-09-12T14:40:46;100519.81;;;17.73;97.57
43707;BME280;61348;53.392;-6.248;2022-09-12T14:45:52;100519.00;;;17.76;97.60
43707;BME280;61348;53.392;-6.248;2022-09-12T14:48:20;100520.59;;;17.70;97.41
43707;BME280;61348;53.392;-6.248;2022-09-12T14:50:49;100529.78;;;17.56;97.08
43707;BME280;61348;53.392;-6.248;2022-09-12T14:56:13;100527.72;;;17.36;97.29
43707;BME280;61348;53.392;-6.248;2022-09-12T14:58:40;100531.28;;;17.33;96.99
43707;BME280;61348;53.392;-6.248;2022-09-12T15:03:47;100528.09;;;17.34;97.40
43707;BME280;61348;53.392;-6.248;2022-09-12T15:06:32;100528.50;;;17.36;97.24
43707;BME280;61348;53.392;-6.248;2022-09-12T15:09:06;100536.13;;;17.39;97.38
43707;BME280;61348;53.392;-6.248;2022-09-12T15:11:33;100536.53;;;17.41;97.02
43707;BME280;61348;53.392;-6.248;2022-09-12T15:14:13;100534.88;;;17.37;97.04
43707;BME280;61348;53.392;-6.248;2022-09-12T15:16:40;100536.09;;;17.36;97.11
43707;BME280;61348;53.392;-6.248;2022-09-12T15:19:07;100544.50;;;17.29;96.79
43707;BME280;61348;53.392;-6.248;2022-09-12T15:21:33;100542.84;;;17.24;96.59
43707;BME280;61348;53.392;-6.248;2022-09-12T15:24:00;100546.03;;;17.19;96.46
43707;BME280;61348;53.392;-6.248;2022-09-12T15:26:27;100546.41;;;17.14;96.52
43707;BME280;61348;53.392;-6.248;2022-09-12T15:28:56;100544.03;;;17.16;96.58
43707;BME280;61348;53.392;-6.248;2022-09-12T15:31:24;100542.84;;;17.17;96.70
43707;BME280;61348;53.392;-6.248;2022-09-12T15:33:51;100541.22;;;17.16;96.70